Terminal Aerodrome Forecast
Issued by NWS

Home | Current Version | Previous Version | Text Only | Print | Product List | Glossary Off
Versions: 1 2 3 4 5 6 7 8 9 10 11 12 13 14 15 16

000
FTUS43 KBIS 201100
TAFDIK
TAF
KDIK 201120Z 2012/2112 27014KT P6SM SCT080
     FM201500 30023G31KT P6SM SKC
     FM210000 30009KT P6SM SKC=

USA.gov is the U.S. government's official web portal to all federal, state and local government web resources and services.